Time;durP1;ratioP1;P1;durP2;ratioP2;P2;SDS_P1;SDS_P2;PMS_P1;PMS_P2;Temp;Humidity;BMP_temperature;BMP_pressure;BME280_temperature;BME280_humidity;BME280_pressure;Samples;Min_cycle;Max_cycle;Signal;HPM_P1;HPM_P2
2023/02/17 00:02:21;;;;;;;;;;;;;;;5.34;90.28;99231.50;5067477;28;19930;-77
2023/02/17 00:04:46;;;;;;;;;;;;;;;5.31;90.06;99216.00;5069317;28;20015;-77
2023/02/17 00:07:11;;;;;;;;;;;;;;;5.29;90.09;99226.81;5063395;28;20647;-77
2023/02/17 00:09:36;;;;;;;;;;;;;;;5.30;90.38;99217.88;5064362;28;19923;-78
2023/02/17 00:12:01;;;;;;;;;;;;;;;5.33;90.55;99214.78;5065179;28;19916;-76
2023/02/17 00:14:27;;;;;;;;;;;;;;;5.27;90.98;99222.72;5066996;28;19921;-77
2023/02/17 00:16:52;;;;;;;;;;;;;;;5.35;91.08;99219.06;5069530;28;19920;-77
2023/02/17 00:19:23;;;;;;;;;;;;;;;5.32;91.02;99220.28;5066990;28;19920;-77
2023/02/17 00:21:53;;;;;;;;;;;;;;;5.26;91.72;99223.78;5065492;28;19939;-77
2023/02/17 00:24:18;;;;;;;;;;;;;;;5.30;92.01;99222.34;5060779;28;19932;-77
2023/02/17 00:26:43;;;;;;;;;;;;;;;5.30;92.18;99225.81;5064451;28;20061;-77
2023/02/17 00:29:09;;;;;;;;;;;;;;;5.27;92.28;99228.03;5064380;28;19967;-76
2023/02/17 00:31:35;;;;;;;;;;;;;;;5.30;91.92;99224.97;5064226;28;20593;-77
2023/02/17 00:34:00;;;;;;;;;;;;;;;5.38;91.09;99224.75;5061188;28;19924;-77
2023/02/17 00:36:25;;;;;;;;;;;;;;;5.29;92.17;99224.16;5064913;28;19928;-77
2023/02/17 00:38:52;;;;;;;;;;;;;;;5.35;91.82;99217.25;5067866;28;20021;-76
2023/02/17 00:41:18;;;;;;;;;;;;;;;5.30;92.03;99220.50;5062766;28;19920;-76
2023/02/17 00:43:44;;;;;;;;;;;;;;;5.37;91.65;99219.69;5064829;28;20407;-77
2023/02/17 00:46:10;;;;;;;;;;;;;;;5.35;92.29;99211.97;5060953;28;19916;-76
2023/02/17 00:48:35;;;;;;;;;;;;;;;5.35;92.71;99209.31;5062337;28;20624;-76
2023/02/17 00:51:00;;;;;;;;;;;;;;;5.35;91.94;99206.66;5063782;28;19925;-77
2023/02/17 00:53:26;;;;;;;;;;;;;;;5.26;92.90;99207.91;5066134;28;19928;-76
2023/02/17 00:55:52;;;;;;;;;;;;;;;5.33;92.86;99208.66;5062564;28;20397;-76
2023/02/17 00:58:17;;;;;;;;;;;;;;;5.28;93.40;99211.16;5064688;28;20009;-77
2023/02/17 01:00:42;;;;;;;;;;;;;;;5.26;93.09;99202.59;5064531;28;20292;-76
2023/02/17 01:03:07;;;;;;;;;;;;;;;5.25;93.91;99191.19;5060650;28;19929;-76
2023/02/17 01:05:33;;;;;;;;;;;;;;;5.28;93.80;99196.09;5063279;28;19923;-78
2023/02/17 01:07:58;;;;;;;;;;;;;;;5.26;93.94;99199.97;5067863;28;19960;-77
2023/02/17 01:10:23;;;;;;;;;;;;;;;5.22;93.85;99191.59;5067714;28;19917;-79
2023/02/17 01:12:49;;;;;;;;;;;;;;;5.27;93.79;99193.63;5063785;28;19916;-77
2023/02/17 01:15:14;;;;;;;;;;;;;;;5.22;94.50;99191.59;5067198;28;20074;-77
2023/02/17 01:17:39;;;;;;;;;;;;;;;5.28;93.77;99185.50;5062120;28;20030;-77
2023/02/17 01:20:05;;;;;;;;;;;;;;;5.35;93.81;99180.19;5050583;28;19928;-78
2023/02/17 01:22:30;;;;;;;;;;;;;;;5.35;94.06;99174.09;5063010;28;19927;-75
2023/02/17 01:24:56;;;;;;;;;;;;;;;5.29;93.59;99170.41;5063206;28;19931;-76
2023/02/17 01:27:21;;;;;;;;;;;;;;;5.29;93.60;99165.94;5062635;28;19943;-76
2023/02/17 01:29:46;;;;;;;;;;;;;;;5.28;94.09;99160.88;5059632;28;19927;-77
2023/02/17 01:32:11;;;;;;;;;;;;;;;5.25;95.20;99161.28;5061252;28;19937;-78
2023/02/17 01:34:37;;;;;;;;;;;;;;;5.30;94.57;99148.25;5061568;28;20738;-77
2023/02/17 01:37:02;;;;;;;;;;;;;;;5.30;94.28;99151.72;5064936;28;19966;-77
2023/02/17 01:39:27;;;;;;;;;;;;;;;5.31;94.81;99147.19;5065823;28;19932;-77
2023/02/17 01:41:53;;;;;;;;;;;;;;;5.29;94.80;99149.25;5060347;28;20005;-77
2023/02/17 01:44:19;;;;;;;;;;;;;;;5.29;94.35;99143.94;5063422;28;19951;-77
2023/02/17 01:46:46;;;;;;;;;;;;;;;5.30;95.45;99143.75;5068899;28;20392;-77
2023/02/17 01:49:31;;;;;;;;;;;;;;;5.40;94.74;99139.84;5065026;28;19982;-77
2023/02/17 01:52:03;;;;;;;;;;;;;;;5.43;94.01;99144.75;5069062;28;19921;-77
2023/02/17 01:54:38;;;;;;;;;;;;;;;5.37;94.72;99132.34;5074234;28;19916;-77
2023/02/17 01:57:04;;;;;;;;;;;;;;;5.41;94.98;99134.38;5069971;28;20400;-77
2023/02/17 01:59:29;;;;;;;;;;;;;;;5.45;94.21;99132.94;5066846;28;19920;-77
2023/02/17 02:01:57;;;;;;;;;;;;;;;5.36;94.61;99123.59;5066194;28;19916;-77
2023/02/17 02:04:24;;;;;;;;;;;;;;;5.51;93.69;99124.13;5068934;28;20285;-78
2023/02/17 02:06:50;;;;;;;;;;;;;;;5.53;93.85;99124.75;5071281;28;19928;-78
2023/02/17 02:09:21;;;;;;;;;;;;;;;5.55;93.77;99121.91;5068664;28;20018;-78
2023/02/17 02:11:50;;;;;;;;;;;;;;;5.49;94.41;99115.59;5070996;28;20336;-77
2023/02/17 02:14:16;;;;;;;;;;;;;;;5.55;94.21;99117.41;5069858;28;19973;-77
2023/02/17 02:17:02;;;;;;;;;;;;;;;5.58;94.61;99111.69;5064896;28;20019;-78
2023/02/17 02:19:30;;;;;;;;;;;;;;;5.60;94.02;99100.88;5046346;28;19931;-77
2023/02/17 02:22:21;;;;;;;;;;;;;;;5.61;94.24;99100.69;5068846;28;20558;-77
2023/02/17 02:25:15;;;;;;;;;;;;;;;5.56;94.68;99103.16;5068329;28;20300;-78
2023/02/17 02:27:52;;;;;;;;;;;;;;;5.63;95.36;99103.94;5058027;28;19920;-77
2023/02/17 02:30:35;;;;;;;;;;;;;;;5.65;93.71;99096.59;5067473;28;19931;-77
2023/02/17 02:33:33;;;;;;;;;;;;;;;5.63;94.98;99088.06;5063621;28;19947;-77
2023/02/17 02:36:16;;;;;;;;;;;;;;;5.64;95.09;99087.03;5044571;28;19923;-77
2023/02/17 02:38:49;;;;;;;;;;;;;;;5.62;95.40;99080.31;5065582;28;20051;-77
2023/02/17 02:41:23;;;;;;;;;;;;;;;5.68;95.67;99085.56;5059642;28;20045;-76
2023/02/17 02:43:49;;;;;;;;;;;;;;;5.71;94.70;99081.69;5065027;28;21548;-76
2023/02/17 02:46:14;;;;;;;;;;;;;;;5.70;94.46;99072.94;5066527;28;19924;-77
2023/02/17 02:48:39;;;;;;;;;;;;;;;5.68;94.22;99063.59;5064961;28;19928;-77
2023/02/17 02:51:19;;;;;;;;;;;;;;;5.72;93.06;99070.09;5062365;28;20312;-77
2023/02/17 02:53:59;;;;;;;;;;;;;;;5.71;94.05;99063.16;5064578;28;19970;-77
2023/02/17 02:56:40;;;;;;;;;;;;;;;5.71;94.40;99058.69;5069708;28;20015;-77
2023/02/17 02:59:20;;;;;;;;;;;;;;;5.77;94.84;99062.31;5070406;28;19927;-77
2023/02/17 03:01:45;;;;;;;;;;;;;;;5.77;95.08;99051.72;5065194;28;19920;-75
2023/02/17 03:04:14;;;;;;;;;;;;;;;5.67;95.08;99036.31;5068681;28;19970;-75
2023/02/17 03:06:48;;;;;;;;;;;;;;;5.72;95.37;99043.63;5063970;28;19936;-76
2023/02/17 03:09:17;;;;;;;;;;;;;;;5.77;94.46;99041.13;5067302;28;19923;-75
2023/02/17 03:11:43;;;;;;;;;;;;;;;5.78;94.81;99037.47;5064340;28;19999;-75
2023/02/17 03:14:10;;;;;;;;;;;;;;;5.83;95.78;99037.66;5053869;28;20296;-75
2023/02/17 03:16:36;;;;;;;;;;;;;;;5.79;94.75;99033.78;5063448;28;19933;-74
2023/02/17 03:19:01;;;;;;;;;;;;;;;5.74;95.02;99047.69;5065353;28;20777;-75
2023/02/17 03:21:37;;;;;;;;;;;;;;;5.71;95.97;99039.31;5070609;28;20645;-76
2023/02/17 03:24:03;;;;;;;;;;;;;;;5.76;95.66;99037.69;5067252;28;19916;-76
2023/02/17 03:26:28;;;;;;;;;;;;;;;5.72;96.06;99039.09;5064536;28;19931;-76
2023/02/17 03:28:53;;;;;;;;;;;;;;;5.74;96.17;99042.38;5066887;28;19921;-77
2023/02/17 03:31:18;;;;;;;;;;;;;;;5.79;95.85;99047.84;5051372;28;19920;-78
2023/02/17 03:33:44;;;;;;;;;;;;;;;5.81;95.27;99040.47;5066899;28;20491;-78
2023/02/17 03:36:09;;;;;;;;;;;;;;;5.79;97.02;99044.38;5069018;28;19970;-78
2023/02/17 03:38:34;;;;;;;;;;;;;;;5.80;97.27;99038.88;5070669;28;20270;-78
2023/02/17 03:40:59;;;;;;;;;;;;;;;5.78;96.42;99032.97;5059591;28;19950;-76
2023/02/17 03:43:25;;;;;;;;;;;;;;;5.75;97.17;99022.81;5065750;28;20877;-76
2023/02/17 03:45:50;;;;;;;;;;;;;;;5.79;96.62;99018.69;5066830;28;20427;-77
2023/02/17 03:48:15;;;;;;;;;;;;;;;5.81;96.55;99018.50;5061405;28;19947;-77
2023/02/17 03:50:40;;;;;;;;;;;;;;;5.79;96.29;99028.47;5064047;28;19917;-76
2023/02/17 03:53:06;;;;;;;;;;;;;;;5.78;97.40;99017.09;5059822;28;19928;-76
2023/02/17 03:55:32;;;;;;;;;;;;;;;5.76;96.76;99016.50;5059871;28;19925;-76
2023/02/17 03:57:57;;;;;;;;;;;;;;;5.82;97.36;99007.69;5057718;28;19990;-76
2023/02/17 04:00:23;;;;;;;;;;;;;;;5.82;96.60;99004.22;5058177;28;20393;-77
2023/02/17 04:02:48;;;;;;;;;;;;;;;5.79;97.16;99000.16;5042479;28;19929;-76
2023/02/17 04:05:14;;;;;;;;;;;;;;;5.76;96.94;98997.16;5062197;28;20338;-76
2023/02/17 04:07:39;;;;;;;;;;;;;;;5.72;97.51;98988.00;5057473;28;20428;-77
2023/02/17 04:10:05;;;;;;;;;;;;;;;5.73;97.35;98993.06;5060257;28;19920;-79
2023/02/17 04:12:30;;;;;;;;;;;;;;;5.81;97.44;98992.03;5066253;28;19924;-78
2023/02/17 04:14:55;;;;;;;;;;;;;;;5.79;97.41;98999.34;5053008;28;19970;-78
2023/02/17 04:17:20;;;;;;;;;;;;;;;5.82;98.01;98983.84;5060538;28;20277;-78
2023/02/17 04:19:45;;;;;;;;;;;;;;;5.83;97.79;98982.03;5064338;28;20274;-78
2023/02/17 04:22:11;;;;;;;;;;;;;;;5.85;97.71;98982.66;5064690;28;19927;-76
2023/02/17 04:24:36;;;;;;;;;;;;;;;5.91;96.40;98979.97;5063777;28;19920;-76
2023/02/17 04:27:02;;;;;;;;;;;;;;;5.88;96.70;98985.66;5063540;28;19927;-76
2023/02/17 04:29:28;;;;;;;;;;;;;;;5.85;96.91;98978.13;5064935;28;19917;-78
2023/02/17 04:31:53;;;;;;;;;;;;;;;5.94;97.55;98974.22;5063655;28;20011;-78
2023/02/17 04:34:18;;;;;;;;;;;;;;;5.93;97.28;98982.38;5068486;28;19920;-81
2023/02/17 04:36:43;;;;;;;;;;;;;;;5.94;96.94;98984.81;5073055;28;19924;-80
2023/02/17 04:39:08;;;;;;;;;;;;;;;5.97;96.42;98992.34;5066255;28;19924;-79
2023/02/17 04:41:34;;;;;;;;;;;;;;;6.02;96.57;98997.81;5072292;28;19920;-80
2023/02/17 04:43:59;;;;;;;;;;;;;;;5.99;96.78;99002.72;5065808;28;20023;-79
2023/02/17 04:46:24;;;;;;;;;;;;;;;6.04;97.30;98986.97;5065895;28;21528;-79
2023/02/17 04:48:49;;;;;;;;;;;;;;;6.07;96.75;98987.34;5065183;28;20373;-79
2023/02/17 04:51:15;;;;;;;;;;;;;;;6.07;96.08;98999.81;5068274;28;19924;-78
2023/02/17 04:53:40;;;;;;;;;;;;;;;6.02;95.53;98991.69;5064133;28;20019;-79
2023/02/17 04:56:05;;;;;;;;;;;;;;;6.16;94.68;98995.06;5069075;28;19924;-79
2023/02/17 04:58:31;;;;;;;;;;;;;;;6.11;95.34;98997.53;5067327;28;19920;-79
2023/02/17 05:00:57;;;;;;;;;;;;;;;6.03;96.29;98990.66;5068782;28;19916;-80
2023/02/17 05:03:22;;;;;;;;;;;;;;;6.07;96.95;99001.63;5063793;28;19977;-77
2023/02/17 05:05:48;;;;;;;;;;;;;;;6.07;96.57;99005.91;5058058;28;19924;-75
2023/02/17 05:08:13;;;;;;;;;;;;;;;6.07;96.30;99000.59;5062758;28;19928;-76
2023/02/17 05:10:39;;;;;;;;;;;;;;;6.09;96.04;99002.25;5066430;28;19924;-74
2023/02/17 05:13:04;;;;;;;;;;;;;;;6.12;96.25;98992.00;5063323;28;20801;-74
2023/02/17 05:15:29;;;;;;;;;;;;;;;6.16;96.24;98987.09;5062330;28;19935;-75
2023/02/17 05:17:54;;;;;;;;;;;;;;;6.12;95.50;98986.69;5062780;28;19926;-74
2023/02/17 05:20:20;;;;;;;;;;;;;;;6.08;96.38;98988.16;5068250;28;20385;-73
2023/02/17 05:22:45;;;;;;;;;;;;;;;6.10;96.88;98986.13;5060646;28;20439;-74
2023/02/17 05:25:10;;;;;;;;;;;;;;;6.12;95.98;98997.31;5060120;28;19924;-73
2023/02/17 05:27:35;;;;;;;;;;;;;;;6.12;97.06;98991.19;5062536;28;19936;-74
2023/02/17 05:30:01;;;;;;;;;;;;;;;6.12;97.27;99001.78;5059643;28;19924;-73
2023/02/17 05:32:26;;;;;;;;;;;;;;;6.14;97.56;99005.84;5063977;28;20312;-74
2023/02/17 05:34:51;;;;;;;;;;;;;;;6.07;96.96;99000.59;5061240;28;19925;-74
2023/02/17 05:37:16;;;;;;;;;;;;;;;6.19;96.63;98995.41;5068473;28;19921;-74
2023/02/17 05:39:42;;;;;;;;;;;;;;;6.09;97.07;98986.34;5065233;28;19921;-74
2023/02/17 05:42:07;;;;;;;;;;;;;;;6.12;97.03;98988.53;5068570;28;19925;-74
2023/02/17 05:44:32;;;;;;;;;;;;;;;6.14;97.10;98994.47;5066692;28;19970;-73
2023/02/17 05:46:57;;;;;;;;;;;;;;;6.15;96.32;98982.81;5065189;28;19924;-77
2023/02/17 05:49:23;;;;;;;;;;;;;;;6.09;97.02;98968.59;5066060;28;19917;-74
2023/02/17 05:51:48;;;;;;;;;;;;;;;6.09;97.07;98951.91;5061362;28;19944;-73
2023/02/17 05:54:13;;;;;;;;;;;;;;;6.04;97.47;98941.94;5061159;28;20051;-75
2023/02/17 05:56:38;;;;;;;;;;;;;;;6.05;97.91;98943.56;5060100;28;20035;-75
2023/02/17 05:59:04;;;;;;;;;;;;;;;6.07;97.76;98948.66;5064524;28;19936;-75
2023/02/17 06:01:29;;;;;;;;;;;;;;;5.99;97.30;98937.28;5073590;28;19920;-74
2023/02/17 06:03:54;;;;;;;;;;;;;;;6.02;97.61;98946.66;5072608;28;19920;-74
2023/02/17 06:06:19;;;;;;;;;;;;;;;6.02;97.72;98938.69;5070564;28;20003;-74
2023/02/17 06:08:45;;;;;;;;;;;;;;;6.00;97.62;98941.56;5070404;28;19917;-75
2023/02/17 06:11:10;;;;;;;;;;;;;;;5.97;98.10;98934.06;5068617;28;19928;-74
2023/02/17 06:13:35;;;;;;;;;;;;;;;5.98;97.93;98940.16;5066166;28;19923;-74
2023/02/17 06:16:00;;;;;;;;;;;;;;;6.00;97.54;98938.13;5058122;28;19928;-75
2023/02/17 06:18:26;;;;;;;;;;;;;;;5.97;98.22;98944.66;5061026;28;19953;-75
2023/02/17 06:20:53;;;;;;;;;;;;;;;6.01;97.86;98937.88;5066585;28;19920;-75
2023/02/17 06:23:19;;;;;;;;;;;;;;;6.01;97.68;98948.47;5055447;28;19955;-74
2023/02/17 06:25:44;;;;;;;;;;;;;;;5.97;97.60;98934.06;5065345;28;20385;-75
2023/02/17 06:28:09;;;;;;;;;;;;;;;5.97;98.11;98942.00;5063499;28;20571;-74
2023/02/17 06:30:35;;;;;;;;;;;;;;;6.01;97.79;98953.78;5068345;28;20015;-74
2023/02/17 06:33:00;;;;;;;;;;;;;;;5.97;97.39;98965.03;5064303;28;19924;-75
2023/02/17 06:35:25;;;;;;;;;;;;;;;5.98;97.08;98974.59;5070120;28;19939;-75
2023/02/17 06:37:50;;;;;;;;;;;;;;;5.99;96.97;98963.78;5067504;28;19932;-75
2023/02/17 06:40:16;;;;;;;;;;;;;;;6.09;96.42;98954.53;5070073;28;20369;-74
2023/02/17 06:42:41;;;;;;;;;;;;;;;6.11;95.73;98955.13;5068077;28;19971;-75
2023/02/17 06:45:07;;;;;;;;;;;;;;;6.12;95.60;98960.22;5069722;28;20011;-75
2023/02/17 06:47:32;;;;;;;;;;;;;;;6.07;96.14;98965.38;5063300;28;19975;-75
2023/02/17 06:49:58;;;;;;;;;;;;;;;6.16;95.97;98960.59;5071153;28;19955;-74
2023/02/17 06:52:23;;;;;;;;;;;;;;;6.10;96.03;98956.16;5064375;28;20034;-74
2023/02/17 06:54:48;;;;;;;;;;;;;;;6.14;97.06;98952.06;5070927;28;19973;-74
2023/02/17 06:57:15;;;;;;;;;;;;;;;6.11;97.44;98948.00;5063974;28;20390;-75
2023/02/17 06:59:40;;;;;;;;;;;;;;;6.11;97.40;98940.06;5059109;28;20324;-73
2023/02/17 07:02:06;;;;;;;;;;;;;;;6.11;97.25;98933.94;5059555;28;19920;-74
2023/02/17 07:04:31;;;;;;;;;;;;;;;6.11;97.42;98923.34;5056990;28;19971;-73
2023/02/17 07:06:56;;;;;;;;;;;;;;;6.12;97.64;98927.59;5060423;28;19964;-75
2023/02/17 07:09:22;;;;;;;;;;;;;;;6.16;97.48;98929.59;5047954;28;20023;-74
2023/02/17 07:11:49;;;;;;;;;;;;;;;6.12;97.34;98925.75;5045223;28;20047;-74
2023/02/17 07:14:15;;;;;;;;;;;;;;;6.21;97.44;98931.59;5060487;28;20010;-75
2023/02/17 07:16:40;;;;;;;;;;;;;;;6.19;97.21;98931.00;5066268;28;20351;-77
2023/02/17 07:19:05;;;;;;;;;;;;;;;6.29;97.21;98941.94;5064487;28;19928;-76
2023/02/17 07:21:30;;;;;;;;;;;;;;;6.32;95.55;98930.88;5064510;28;19947;-76
2023/02/17 07:23:56;;;;;;;;;;;;;;;6.31;96.41;98932.72;5064244;28;19924;-75
2023/02/17 07:26:21;;;;;;;;;;;;;;;6.36;96.31;98934.72;5064959;28;19943;-75
2023/02/17 07:28:46;;;;;;;;;;;;;;;6.38;96.04;98919.38;5055331;28;19929;-75
2023/02/17 07:31:13;;;;;;;;;;;;;;;6.44;95.46;98929.13;5059300;28;20378;-75
2023/02/17 07:33:38;;;;;;;;;;;;;;;6.44;95.44;98926.50;5063738;28;19920;-74
2023/02/17 07:36:05;;;;;;;;;;;;;;;6.44;96.19;98926.50;5060358;28;19916;-74
2023/02/17 07:38:37;;;;;;;;;;;;;;;6.43;96.48;98924.84;5057708;28;19935;-74
2023/02/17 07:41:06;;;;;;;;;;;;;;;6.47;95.89;98916.25;5060966;28;19921;-75
2023/02/17 07:43:32;;;;;;;;;;;;;;;6.49;95.74;98911.53;5060111;28;19974;-73
2023/02/17 07:45:57;;;;;;;;;;;;;;;6.46;96.14;98925.25;5061657;28;19944;-73
2023/02/17 07:48:22;;;;;;;;;;;;;;;6.53;95.98;98925.97;5063522;28;20297;-74
2023/02/17 07:50:47;;;;;;;;;;;;;;;6.55;95.81;98921.25;5064091;28;20521;-75
2023/02/17 07:53:12;;;;;;;;;;;;;;;6.61;95.29;98930.19;5067658;28;20449;-76
2023/02/17 07:55:38;;;;;;;;;;;;;;;6.66;95.82;98923.16;5062220;28;19939;-76
2023/02/17 07:58:03;;;;;;;;;;;;;;;6.72;95.24;98910.88;5065097;28;19928;-77
2023/02/17 08:00:28;;;;;;;;;;;;;;;6.70;95.22;98919.06;5066886;28;19960;-77
2023/02/17 08:02:53;;;;;;;;;;;;;;;6.81;94.42;98917.50;5065860;28;19927;-76
2023/02/17 08:05:19;;;;;;;;;;;;;;;6.86;94.11;98911.53;5061087;28;19924;-75
2023/02/17 08:07:44;;;;;;;;;;;;;;;6.85;94.23;98916.03;5053410;28;20274;-75
2023/02/17 08:15:40;;;;;;;;;;;;;;;6.97;94.97;98916.09;5065916;28;19931;-75
2023/02/17 08:18:05;;;;;;;;;;;;;;;6.96;94.80;98912.63;5066067;28;19939;-75
2023/02/17 08:20:30;;;;;;;;;;;;;;;6.99;94.61;98909.50;5067154;28;19929;-75
2023/02/17 08:22:55;;;;;;;;;;;;;;;6.97;94.43;98897.53;5066157;28;20403;-76
2023/02/17 08:25:21;;;;;;;;;;;;;;;6.94;94.77;98896.13;5061270;28;19921;-75
2023/02/17 08:27:46;;;;;;;;;;;;;;;7.03;94.69;98905.38;5069587;28;19982;-75
2023/02/17 08:30:11;;;;;;;;;;;;;;;7.07;94.66;98895.13;5067191;28;20331;-75
2023/02/17 08:32:39;;;;;;;;;;;;;;;7.05;95.51;98899.84;5060374;28;20411;-75
2023/02/17 08:35:05;;;;;;;;;;;;;;;7.10;93.59;98895.47;5068583;28;19948;-75
2023/02/17 08:37:31;;;;;;;;;;;;;;;7.04;94.30;98899.03;5067289;28;19951;-75
2023/02/17 08:39:57;;;;;;;;;;;;;;;7.11;94.24;98896.28;5068222;28;19959;-75
2023/02/17 08:42:23;;;;;;;;;;;;;;;7.11;94.99;98885.69;5060124;28;20410;-75
2023/02/17 08:44:49;;;;;;;;;;;;;;;7.18;94.59;98879.25;5065237;28;19932;-75
2023/02/17 08:47:14;;;;;;;;;;;;;;;7.11;95.45;98873.22;5064801;28;20161;-74
2023/02/17 08:49:39;;;;;;;;;;;;;;;7.17;94.94;98877.63;5062443;28;20380;-76
2023/02/17 08:52:04;;;;;;;;;;;;;;;7.26;94.23;98878.94;5063433;28;20430;-75
2023/02/17 08:54:30;;;;;;;;;;;;;;;7.25;94.56;98882.59;5067073;28;19932;-75
2023/02/17 08:56:57;;;;;;;;;;;;;;;7.32;93.80;98875.34;5063530;28;19917;-75
2023/02/17 08:59:22;;;;;;;;;;;;;;;7.27;94.92;98877.09;5066008;28;20658;-76
2023/02/17 09:01:47;;;;;;;;;;;;;;;7.33;94.24;98874.34;5067797;28;19920;-76
2023/02/17 09:04:13;;;;;;;;;;;;;;;7.38;94.35;98866.47;5066537;28;19924;-75
2023/02/17 09:06:40;;;;;;;;;;;;;;;7.42;93.92;98883.59;5065392;28;19916;-74
2023/02/17 09:09:07;;;;;;;;;;;;;;;7.46;93.03;98884.75;5066502;28;19997;-75
2023/02/17 09:11:33;;;;;;;;;;;;;;;7.53;93.55;98869.50;5062219;28;19946;-74
2023/02/17 09:13:58;;;;;;;;;;;;;;;7.55;93.10;98883.41;5068686;28;20446;-75
2023/02/17 09:16:23;;;;;;;;;;;;;;;7.60;94.00;98868.63;5065355;28;19924;-75
2023/02/17 09:18:52;;;;;;;;;;;;;;;7.58;94.16;98882.13;5055630;28;19968;-75
2023/02/17 09:21:17;;;;;;;;;;;;;;;7.56;93.61;98879.69;5062847;28;19950;-75
2023/02/17 09:23:43;;;;;;;;;;;;;;;7.59;93.38;98875.78;5062721;28;20436;-75
2023/02/17 09:26:10;;;;;;;;;;;;;;;7.62;93.28;98874.50;5067821;28;19917;-75
2023/02/17 09:28:36;;;;;;;;;;;;;;;7.67;93.64;98864.00;5066629;28;19917;-75
2023/02/17 09:31:08;;;;;;;;;;;;;;;7.69;93.07;98853.97;5065142;28;19934;-74
2023/02/17 09:33:34;;;;;;;;;;;;;;;7.70;92.75;98868.84;5061909;28;19960;-75
2023/02/17 09:35:59;;;;;;;;;;;;;;;7.72;93.22;98864.94;5059638;28;20006;-75
2023/02/17 09:38:24;;;;;;;;;;;;;;;7.66;92.83;98852.59;5061060;28;19974;-75
2023/02/17 09:40:50;;;;;;;;;;;;;;;7.75;93.21;98837.09;5063427;28;19925;-75
2023/02/17 09:43:17;;;;;;;;;;;;;;;7.69;93.17;98838.03;5066813;28;20542;-76
2023/02/17 09:45:46;;;;;;;;;;;;;;;7.73;93.53;98850.63;5067570;28;19920;-76
2023/02/17 09:48:13;;;;;;;;;;;;;;;7.79;93.47;98841.75;5067341;28;19916;-75
2023/02/17 09:50:49;;;;;;;;;;;;;;;7.85;92.68;98854.09;5064185;28;19921;-75
2023/02/17 09:53:17;;;;;;;;;;;;;;;7.95;92.81;98851.66;5061087;28;20014;-75
2023/02/17 09:55:50;;;;;;;;;;;;;;;8.01;92.96;98860.56;5061313;28;19916;-75
2023/02/17 09:58:24;;;;;;;;;;;;;;;8.00;92.08;98862.41;5059467;28;20007;-75
2023/02/17 10:00:53;;;;;;;;;;;;;;;8.02;92.90;98864.81;5059975;28;19917;-75
2023/02/17 10:03:31;;;;;;;;;;;;;;;8.03;92.88;98869.94;5056070;28;20018;-75
2023/02/17 10:06:08;;;;;;;;;;;;;;;8.06;91.75;98874.78;5065118;28;19920;-75
2023/02/17 10:08:37;;;;;;;;;;;;;;;8.04;92.18;98873.38;5066753;28;20300;-75
2023/02/17 10:11:05;;;;;;;;;;;;;;;8.00;92.98;98873.03;5065839;28;19924;-75
2023/02/17 10:13:33;;;;;;;;;;;;;;;8.09;92.40;98862.88;5066165;28;20449;-75
2023/02/17 10:16:02;;;;;;;;;;;;;;;8.15;91.70;98864.59;5067550;28;19924;-76
2023/02/17 10:18:34;;;;;;;;;;;;;;;8.10;91.93;98862.63;5066343;28;20415;-76
2023/02/17 10:21:07;;;;;;;;;;;;;;;8.03;92.05;98853.16;5067997;28;19939;-75
2023/02/17 10:23:34;;;;;;;;;;;;;;;8.06;92.63;98858.81;5068113;28;19923;-75
2023/02/17 10:26:18;;;;;;;;;;;;;;;8.08;92.08;98853.28;5067406;28;19920;-76
2023/02/17 10:28:50;;;;;;;;;;;;;;;8.04;92.76;98858.25;5067813;28;19924;-75
2023/02/17 10:31:34;;;;;;;;;;;;;;;8.08;92.64;98856.72;5064304;28;19974;-75
2023/02/17 10:34:04;;;;;;;;;;;;;;;8.10;92.56;98859.97;5060531;28;19925;-75
2023/02/17 10:36:29;;;;;;;;;;;;;;;8.19;92.44;98863.91;5059917;28;20435;-76
2023/02/17 10:39:04;;;;;;;;;;;;;;;8.26;92.58;98869.94;5068564;28;19925;-75
2023/02/17 10:41:33;;;;;;;;;;;;;;;8.27;92.11;98873.41;5066273;28;19924;-75
2023/02/17 10:43:59;;;;;;;;;;;;;;;8.26;91.61;98874.44;5069843;28;19920;-75
2023/02/17 10:46:27;;;;;;;;;;;;;;;8.35;92.18;98878.38;5067059;28;19936;-75
2023/02/17 10:48:54;;;;;;;;;;;;;;;8.39;92.16;98890.16;5065684;28;19920;-75
2023/02/17 10:51:22;;;;;;;;;;;;;;;8.45;91.42;98893.75;5065450;28;19935;-75
2023/02/17 10:53:50;;;;;;;;;;;;;;;8.48;91.86;98875.47;5066178;28;19917;-75
2023/02/17 10:56:21;;;;;;;;;;;;;;;8.47;91.27;98886.34;5065782;28;19921;-76
2023/02/17 10:59:07;;;;;;;;;;;;;;;8.43;91.60;98862.03;5061559;28;19929;-74
2023/02/17 11:01:32;;;;;;;;;;;;;;;8.65;91.93;98868.38;5061649;28;20632;-75
2023/02/17 11:04:08;;;;;;;;;;;;;;;8.86;90.97;98864.25;5065776;28;19927;-75
2023/02/17 11:06:40;;;;;;;;;;;;;;;8.83;91.00;98862.88;5067921;28;19921;-75
2023/02/17 11:09:15;;;;;;;;;;;;;;;8.93;90.87;98856.97;5067247;28;20019;-75
2023/02/17 11:11:48;;;;;;;;;;;;;;;8.94;90.44;98862.03;5066256;28;19999;-74
2023/02/17 11:14:19;;;;;;;;;;;;;;;9.12;90.82;98823.75;5068167;28;20023;-75
2023/02/17 11:16:46;;;;;;;;;;;;;;;9.06;90.42;98814.06;5063793;28;19931;-75
2023/02/17 11:19:23;;;;;;;;;;;;;;;9.22;90.09;98810.63;5062489;28;20425;-75
2023/02/17 11:21:49;;;;;;;;;;;;;;;9.22;89.66;98813.28;5064544;28;19961;-75
2023/02/17 11:24:14;;;;;;;;;;;;;;;9.17;89.78;98815.88;5065704;28;19925;-75
2023/02/17 11:26:39;;;;;;;;;;;;;;;9.29;89.47;98807.78;5061716;28;19941;-75
2023/02/17 11:29:20;;;;;;;;;;;;;;;9.31;89.39;98813.69;5059131;28;19924;-75
2023/02/17 11:32:00;;;;;;;;;;;;;;;9.46;89.75;98789.97;5066492;28;19920;-75
2023/02/17 11:34:28;;;;;;;;;;;;;;;9.54;88.98;98781.59;5062621;28;20481;-74
2023/02/17 11:37:02;;;;;;;;;;;;;;;9.54;88.89;98793.06;5069818;28;19924;-74
2023/02/17 11:39:27;;;;;;;;;;;;;;;9.48;88.68;98790.56;5067761;28;20369;-75
2023/02/17 11:41:53;;;;;;;;;;;;;;;9.68;88.15;98783.66;5070170;28;20019;-75
2023/02/17 11:44:27;;;;;;;;;;;;;;;9.37;88.86;98773.56;5065814;28;19920;-75
2023/02/17 11:47:05;;;;;;;;;;;;;;;9.51;88.85;98771.41;5063929;28;19923;-75
2023/02/17 11:49:42;;;;;;;;;;;;;;;9.52;88.35;98773.03;5064713;28;19920;-75
2023/02/17 11:52:26;;;;;;;;;;;;;;;9.49;88.50;98774.31;5061862;28;19916;-75
2023/02/17 11:54:54;;;;;;;;;;;;;;;9.62;88.06;98770.50;5071022;28;19993;-76
2023/02/17 11:57:39;;;;;;;;;;;;;;;9.53;88.03;98772.78;5070171;28;19923;-76
2023/02/17 12:00:14;;;;;;;;;;;;;;;9.59;88.76;98774.47;5065064;28;20040;-76
2023/02/17 12:02:48;;;;;;;;;;;;;;;9.51;88.17;98772.22;5059606;28;19932;-75
2023/02/17 12:05:24;;;;;;;;;;;;;;;9.61;87.99;98760.91;5062442;28;19927;-75
2023/02/17 12:07:50;;;;;;;;;;;;;;;9.70;88.14;98770.09;5065681;28;19916;-75
2023/02/17 12:10:21;;;;;;;;;;;;;;;9.71;87.86;98769.03;5056492;28;20011;-76
2023/02/17 12:13:05;;;;;;;;;;;;;;;9.77;87.49;98770.72;5059626;28;20315;-75
2023/02/17 12:15:42;;;;;;;;;;;;;;;9.82;87.73;98779.63;5062577;28;19920;-76
2023/02/17 12:18:23;;;;;;;;;;;;;;;9.90;87.22;98762.38;5060051;28;19920;-76
2023/02/17 12:20:49;;;;;;;;;;;;;;;9.98;86.29;98753.94;5063591;28;20019;-76
2023/02/17 12:23:17;;;;;;;;;;;;;;;10.22;86.51;98741.25;5054551;28;19979;-76
2023/02/17 12:25:49;;;;;;;;;;;;;;;10.24;86.02;98745.25;5059132;28;20006;-76
2023/02/17 12:28:17;;;;;;;;;;;;;;;10.45;85.83;98741.78;5057034;28;19923;-75
2023/02/17 12:30:44;;;;;;;;;;;;;;;10.46;85.19;98719.34;5059932;28;20261;-76
2023/02/17 12:33:28;;;;;;;;;;;;;;;10.71;84.63;98707.34;5061245;28;19931;-75
2023/02/17 12:35:56;;;;;;;;;;;;;;;10.82;84.51;98693.84;5063928;28;19923;-75
2023/02/17 12:38:37;;;;;;;;;;;;;;;11.01;83.79;98695.06;5065171;28;19934;-76
2023/02/17 12:41:07;;;;;;;;;;;;;;;11.07;83.73;98687.91;5061731;28;20385;-76
2023/02/17 12:43:46;;;;;;;;;;;;;;;10.93;84.21;98671.50;5063240;28;19927;-76
2023/02/17 12:46:14;;;;;;;;;;;;;;;11.03;83.97;98682.25;5063347;28;19928;-76
2023/02/17 12:48:39;;;;;;;;;;;;;;;11.08;84.18;98684.16;5061632;28;19927;-76
2023/02/17 12:51:09;;;;;;;;;;;;;;;10.95;83.94;98685.41;5058775;28;19917;-75
2023/02/17 12:53:37;;;;;;;;;;;;;;;11.00;84.03;98681.97;5059286;28;19956;-76
2023/02/17 12:56:06;;;;;;;;;;;;;;;11.03;83.85;98658.22;5059626;28;19928;-75
2023/02/17 12:58:32;;;;;;;;;;;;;;;11.14;83.10;98669.78;5059276;28;19927;-76
2023/02/17 13:01:02;;;;;;;;;;;;;;;11.18;83.18;98663.66;5058681;28;19928;-75
2023/02/17 13:03:29;;;;;;;;;;;;;;;11.34;83.18;98664.59;5067633;28;19932;-75
2023/02/17 13:06:01;;;;;;;;;;;;;;;11.32;83.14;98667.53;5055575;28;20374;-76